Time;durP1;ratioP1;P1;durP2;ratioP2;P2;SDS_P1;SDS_P2;PMS_P1;PMS_P2;Temp;Humidity;BMP_temperature;BMP_pressure;BME280_temperature;BME280_humidity;BME280_pressure;Samples;Min_cycle;Max_cycle;Signal;HPM_P1;HPM_P2
2021/11/28 00:01:10;;;;;;;;;;;;;;;;;;5026132;28;19936;-67
2021/11/28 00:03:40;;;;;;;;;;;;;;;;;;5027203;28;19929;-66
2021/11/28 00:06:21;;;;;;;;;;;;;;;;;;5028126;28;19925;-67
2021/11/28 00:11:57;;;;;;;;;;;;;;;;;;5021843;28;19925;-67
2021/11/28 00:14:28;;;;;;;;;;;;;;;;;;5028925;28;20362;-67
2021/11/28 00:16:58;;;;;;;;;;;;;;;;;;5026606;28;19925;-67
2021/11/28 00:19:26;;;;;;;;;;;;;;;;;;5026533;28;19933;-67
2021/11/28 00:21:57;;;;;;;;;;;;;;;;;;5024033;28;19932;-67
2021/11/28 00:24:31;;;;;;;;;;;;;;;;;;5026858;28;19932;-66
2021/11/28 00:27:01;;;;;;;;;;;;;;;;;;5027926;28;19925;-66
2021/11/28 00:29:35;;;;;;;;;;;;;;;;;;5025252;28;20382;-66
2021/11/28 00:32:03;;;;;;;;;;;;;;;;;;5028688;28;19929;-67
2021/11/28 00:34:32;;;;;;;;;;;;;;;;;;5024247;28;19979;-66
2021/11/28 00:37:02;;;;;;;;;;;;;;;;;;5013756;28;20051;-66
2021/11/28 00:39:31;;;;;;;;;;;;;;;;;;5024875;28;19932;-66
2021/11/28 00:42:00;;;;;;;;;;;;;;;;;;5028073;28;19933;-66
2021/11/28 00:44:32;;;;;;;;;;;;;;;;;;5026080;28;19925;-66
2021/11/28 00:47:03;;;;;;;;;;;;;;;;;;5023888;28;19925;-66
2021/11/28 00:49:37;;;;;;;;;;;;;;;;;;5023195;28;19925;-67
2021/11/28 00:52:08;;;;;;;;;;;;;;;;;;5028846;28;19925;-67
2021/11/28 00:54:36;;;;;;;;;;;;;;;;;;5023942;28;19929;-67
2021/11/28 00:57:08;;;;;;;;;;;;;;;;;;5027350;28;19935;-67
2021/11/28 00:59:47;;;;;;;;;;;;;;;;;;5024510;28;19960;-67
2021/11/28 01:02:16;;;;;;;;;;;;;;;;;;5028097;28;19982;-67
2021/11/28 01:04:47;;;;;;;;;;;;;;;;;;5024194;28;19933;-67
2021/11/28 01:07:20;;;;;;;;;;;;;;;;;;5026699;28;19925;-67
2021/11/28 01:09:55;;;;;;;;;;;;;;;;;;5008180;28;19952;-67
2021/11/28 01:12:31;;;;;;;;;;;;;;;;;;5027983;28;19929;-67
2021/11/28 01:14:59;;;;;;;;;;;;;;;;;;5026451;28;19925;-67
2021/11/28 01:17:31;;;;;;;;;;;;;;;;;;5024756;28;20394;-67
2021/11/28 01:20:01;;;;;;;;;;;;;;;;;;5027451;28;19929;-67
2021/11/28 01:22:32;;;;;;;;;;;;;;;;;;5023835;28;19988;-67
2021/11/28 01:25:02;;;;;;;;;;;;;;;;;;5026149;28;19957;-67
2021/11/28 01:27:33;;;;;;;;;;;;;;;;;;5025267;28;19931;-67
2021/11/28 01:30:17;;;;;;;;;;;;;;;;;;5023865;28;19925;-67
2021/11/28 01:32:48;;;;;;;;;;;;;;;;;;5025044;28;19932;-67
2021/11/28 01:35:17;;;;;;;;;;;;;;;;;;5023104;28;19925;-67
2021/11/28 01:37:49;;;;;;;;;;;;;;;;;;5023863;28;19936;-67
2021/11/28 01:40:18;;;;;;;;;;;;;;;;;;5026594;28;19944;-67
2021/11/28 01:42:45;;;;;;;;;;;;;;;;;;5022951;28;19974;-67
2021/11/28 01:45:17;;;;;;;;;;;;;;;;;;5023162;28;20290;-67
2021/11/28 01:47:47;;;;;;;;;;;;;;;;;;5026691;28;19929;-67
2021/11/28 01:50:16;;;;;;;;;;;;;;;;;;5026698;28;20278;-67
2021/11/28 01:52:46;;;;;;;;;;;;;;;;;;5027158;28;19973;-67
2021/11/28 01:55:13;;;;;;;;;;;;;;;;;;5035176;28;19925;-67
2021/11/28 01:57:46;;;;;;;;;;;;;;;;;;5021236;28;20351;-67
2021/11/28 02:00:16;;;;;;;;;;;;;;;;;;5027733;28;19925;-67
2021/11/28 02:02:44;;;;;;;;;;;;;;;;;;5024615;28;20252;-67
2021/11/28 02:05:13;;;;;;;;;;;;;;;;;;5027753;28;19933;-68
2021/11/28 02:07:42;;;;;;;;;;;;;;;;;;5026735;28;19925;-67
2021/11/28 02:10:12;;;;;;;;;;;;;;;;;;5024270;28;19943;-67
2021/11/28 02:12:43;;;;;;;;;;;;;;;;;;5021071;28;19929;-67
2021/11/28 02:15:14;;;;;;;;;;;;;;;;;;5025469;28;19929;-67
2021/11/28 02:17:50;;;;;;;;;;;;;;;;;;5027497;28;20370;-67
2021/11/28 02:20:20;;;;;;;;;;;;;;;;;;5024223;28;19929;-67
2021/11/28 02:22:50;;;;;;;;;;;;;;;;;;5016176;28;19929;-67
2021/11/28 02:25:24;;;;;;;;;;;;;;;;;;5023436;28;20332;-67
2021/11/28 02:27:55;;;;;;;;;;;;;;;;;;5025528;28;19932;-67
2021/11/28 02:30:28;;;;;;;;;;;;;;;;;;5024555;28;20444;-67
2021/11/28 02:33:00;;;;;;;;;;;;;;;;;;5026320;28;19925;-66
2021/11/28 02:35:34;;;;;;;;;;;;;;;;;;5020005;28;19933;-68
2021/11/28 02:38:03;;;;;;;;;;;;;;;;;;5025621;28;19933;-68
2021/11/28 02:40:33;;;;;;;;;;;;;;;;;;5024122;28;19925;-67
2021/11/28 02:43:05;;;;;;;;;;;;;;;;;;5026113;28;20319;-67
2021/11/28 02:45:36;;;;;;;;;;;;;;;;;;5021224;28;19990;-67
2021/11/28 02:48:07;;;;;;;;;;;;;;;;;;5010665;28;20451;-67
2021/11/28 02:50:35;;;;;;;;;;;;;;;;;;5021429;28;19925;-67
2021/11/28 02:53:09;;;;;;;;;;;;;;;;;;5017338;28;20556;-67
2021/11/28 02:55:39;;;;;;;;;;;;;;;;;;5024312;28;20677;-67
2021/11/28 02:58:07;;;;;;;;;;;;;;;;;;5023598;28;20343;-67
2021/11/28 03:00:38;;;;;;;;;;;;;;;;;;5023468;28;19943;-67
2021/11/28 03:03:06;;;;;;;;;;;;;;;;;;5026081;28;19935;-67
2021/11/28 03:05:35;;;;;;;;;;;;;;;;;;5009455;28;20749;-67
2021/11/28 03:08:08;;;;;;;;;;;;;;;;;;5019453;28;20370;-67
2021/11/28 03:10:39;;;;;;;;;;;;;;;;;;5024441;28;19925;-67
2021/11/28 03:13:07;;;;;;;;;;;;;;;;;;5029037;28;20462;-67
2021/11/28 03:15:37;;;;;;;;;;;;;;;;;;5026304;28;19936;-67
2021/11/28 03:18:08;;;;;;;;;;;;;;;;;;5027470;28;19925;-67
2021/11/28 03:20:38;;;;;;;;;;;;;;;;;;5029779;28;19925;-67
2021/11/28 03:23:11;;;;;;;;;;;;;;;;;;5026775;28;19956;-67
2021/11/28 03:25:40;;;;;;;;;;;;;;;;;;5029053;28;19925;-67
2021/11/28 03:28:08;;;;;;;;;;;;;;;;;;5028591;28;20341;-67
2021/11/28 03:30:41;;;;;;;;;;;;;;;;;;5028686;28;19925;-67
2021/11/28 03:33:09;;;;;;;;;;;;;;;;;;5028043;28;19982;-67
2021/11/28 03:35:39;;;;;;;;;;;;;;;;;;5020259;28;19932;-67
2021/11/28 03:38:08;;;;;;;;;;;;;;;;;;5025821;28;19929;-68
2021/11/28 03:40:35;;;;;;;;;;;;;;;;;;5029735;28;19933;-67
2021/11/28 03:43:10;;;;;;;;;;;;;;;;;;5029512;28;19925;-67
2021/11/28 03:45:38;;;;;;;;;;;;;;;;;;5030189;28;19925;-67
2021/11/28 03:48:07;;;;;;;;;;;;;;;;;;5025825;28;19937;-67
2021/11/28 03:50:37;;;;;;;;;;;;;;;;;;5025489;28;19933;-67
2021/11/28 03:53:06;;;;;;;;;;;;;;;;;;5029307;28;19936;-67
2021/11/28 03:55:38;;;;;;;;;;;;;;;;;;5027176;28;20277;-67
2021/11/28 03:58:09;;;;;;;;;;;;;;;;;;5023092;28;19925;-67
2021/11/28 04:00:37;;;;;;;;;;;;;;;;;;5028273;28;19925;-67
2021/11/28 04:03:08;;;;;;;;;;;;;;;;;;5026076;28;19925;-67
2021/11/28 04:05:51;;;;;;;;;;;;;;;;;;5029909;28;19976;-67
2021/11/28 04:08:22;;;;;;;;;;;;;;;;;;5026180;28;19933;-67
2021/11/28 04:10:51;;;;;;;;;;;;;;;;;;5029558;28;19939;-67
2021/11/28 04:13:20;;;;;;;;;;;;;;;;;;5020421;28;19943;-67
2021/11/28 04:15:51;;;;;;;;;;;;;;;;;;5027550;28;20263;-67
2021/11/28 04:18:21;;;;;;;;;;;;;;;;;;5029470;28;20089;-67
2021/11/28 04:20:49;;;;;;;;;;;;;;;;;;5027348;28;19974;-67
2021/11/28 04:23:18;;;;;;;;;;;;;;;;;;5022777;28;19925;-67
2021/11/28 04:26:02;;;;;;;;;;;;;;;;;;5012014;28;19925;-67
2021/11/28 04:28:32;;;;;;;;;;;;;;;;;;5027700;28;19932;-67
2021/11/28 04:31:02;;;;;;;;;;;;;;;;;;5025305;28;20493;-67
2021/11/28 04:33:33;;;;;;;;;;;;;;;;;;5019805;28;20571;-67
2021/11/28 04:36:05;;;;;;;;;;;;;;;;;;5027450;28;19925;-67
2021/11/28 04:38:37;;;;;;;;;;;;;;;;;;5011603;28;19925;-67
2021/11/28 04:41:07;;;;;;;;;;;;;;;;;;5028887;28;19952;-67
2021/11/28 04:43:38;;;;;;;;;;;;;;;;;;5025472;28;19932;-67
2021/11/28 04:46:06;;;;;;;;;;;;;;;;;;5021956;28;19933;-67
2021/11/28 04:48:36;;;;;;;;;;;;;;;;;;5028525;28;19932;-67
2021/11/28 04:51:05;;;;;;;;;;;;;;;;;;5026096;28;19925;-67
2021/11/28 04:53:33;;;;;;;;;;;;;;;;;;5026130;28;19932;-67
2021/11/28 04:56:06;;;;;;;;;;;;;;;;;;5021752;28;19960;-66
2021/11/28 04:58:39;;;;;;;;;;;;;;;;;;5025405;28;20619;-66
2021/11/28 05:01:08;;;;;;;;;;;;;;;;;;5027843;28;19937;-66
2021/11/28 05:03:37;;;;;;;;;;;;;;;;;;5025518;28;19933;-67
2021/11/28 05:06:06;;;;;;;;;;;;;;;;;;5028377;28;19925;-66
2021/11/28 05:08:36;;;;;;;;;;;;;;;;;;5028201;28;19925;-66
2021/11/28 05:11:03;;;;;;;;;;;;;;;;;;5024952;28;19929;-66
2021/11/28 05:13:31;;;;;;;;;;;;;;;;;;5024959;28;20251;-66
2021/11/28 05:16:02;;;;;;;;;;;;;;;;;;5026147;28;19986;-66
2021/11/28 05:18:30;;;;;;;;;;;;;;;;;;5027536;28;19948;-66
2021/11/28 05:21:02;;;;;;;;;;;;;;;;;;5021840;28;19925;-66
2021/11/28 05:23:34;;;;;;;;;;;;;;;;;;5024167;28;19925;-66
2021/11/28 05:26:05;;;;;;;;;;;;;;;;;;5022306;28;20346;-66
2021/11/28 05:28:35;;;;;;;;;;;;;;;;;;5027055;28;19925;-66
2021/11/28 05:31:05;;;;;;;;;;;;;;;;;;5024647;28;19925;-66
2021/11/28 05:33:37;;;;;;;;;;;;;;;;;;5022996;28;20500;-66
2021/11/28 05:36:06;;;;;;;;;;;;;;;;;;5027031;28;20008;-67
2021/11/28 05:38:36;;;;;;;;;;;;;;;;;;5025360;28;20446;-66
2021/11/28 05:41:05;;;;;;;;;;;;;;;;;;5026414;28;19925;-66
2021/11/28 05:43:39;;;;;;;;;;;;;;;;;;5021923;28;19926;-66
2021/11/28 05:46:06;;;;;;;;;;;;;;;;;;5022742;28;19925;-66
2021/11/28 05:48:36;;;;;;;;;;;;;;;;;;5024226;28;19982;-66
2021/11/28 05:51:06;;;;;;;;;;;;;;;;;;5014903;28;19925;-66
2021/11/28 05:53:37;;;;;;;;;;;;;;;;;;5023704;28;19991;-68
2021/11/28 05:56:06;;;;;;;;;;;;;;;;;;5027014;28;19932;-69
2021/11/28 05:58:38;;;;;;;;;;;;;;;;;;5023858;28;19925;-67
2021/11/28 06:01:08;;;;;;;;;;;;;;;;;;5026821;28;19936;-67
2021/11/28 06:03:36;;;;;;;;;;;;;;;;;;5024767;28;20119;-67
2021/11/28 06:06:06;;;;;;;;;;;;;;;;;;5026489;28;19932;-67
2021/11/28 06:08:37;;;;;;;;;;;;;;;;;;5026075;28;20377;-67
2021/11/28 06:11:08;;;;;;;;;;;;;;;;;;5029673;28;19933;-68
2021/11/28 06:13:37;;;;;;;;;;;;;;;;;;5018600;28;19944;-67
2021/11/28 06:16:06;;;;;;;;;;;;;;;;;;5025449;28;20481;-67
2021/11/28 06:18:35;;;;;;;;;;;;;;;;;;5021407;28;20255;-67
2021/11/28 06:21:05;;;;;;;;;;;;;;;;;;5026235;28;19925;-67
2021/11/28 06:23:33;;;;;;;;;;;;;;;;;;5020206;28;20309;-67
2021/11/28 06:26:04;;;;;;;;;;;;;;;;;;5028116;28;20356;-67
2021/11/28 06:28:35;;;;;;;;;;;;;;;;;;5023707;28;19925;-67
2021/11/28 06:31:04;;;;;;;;;;;;;;;;;;5025239;28;20416;-67
2021/11/28 06:33:34;;;;;;;;;;;;;;;;;;5021758;28;19972;-66
2021/11/28 06:36:05;;;;;;;;;;;;;;;;;;5025699;28;20232;-67
2021/11/28 06:38:37;;;;;;;;;;;;;;;;;;5023180;28;19929;-67
2021/11/28 06:41:07;;;;;;;;;;;;;;;;;;5027359;28;19925;-67
2021/11/28 06:43:39;;;;;;;;;;;;;;;;;;5026638;28;19964;-67
2021/11/28 06:46:08;;;;;;;;;;;;;;;;;;5026852;28;19932;-67
2021/11/28 06:48:37;;;;;;;;;;;;;;;;;;5030361;28;20004;-67
2021/11/28 06:51:06;;;;;;;;;;;;;;;;;;5026675;28;20604;-67
2021/11/28 06:53:35;;;;;;;;;;;;;;;;;;5026609;28;19971;-67
2021/11/28 06:56:04;;;;;;;;;;;;;;;;;;5030650;28;20024;-67
2021/11/28 06:58:36;;;;;;;;;;;;;;;;;;5026592;28;19928;-67
2021/11/28 07:01:06;;;;;;;;;;;;;;;;;;5031449;28;19925;-67
2021/11/28 07:03:37;;;;;;;;;;;;;;;;;;5022791;28;19987;-67
2021/11/28 07:06:08;;;;;;;;;;;;;;;;;;5014611;28;20352;-66
2021/11/28 07:08:39;;;;;;;;;;;;;;;;;;5011386;28;19937;-67
2021/11/28 07:11:31;;;;;;;;;;;;;;;;;;5012318;28;19925;-66
2021/11/28 07:14:02;;;;;;;;;;;;;;;;;;4998994;28;19925;-66
2021/11/28 07:16:32;;;;;;;;;;;;;;;;;;5024455;28;20357;-66
2021/11/28 07:19:01;;;;;;;;;;;;;;;;;;5014534;28;19926;-67
2021/11/28 07:21:29;;;;;;;;;;;;;;;;;;5013552;28;19925;-67
2021/11/28 07:23:58;;;;;;;;;;;;;;;;;;5017666;28;19929;-67
2021/11/28 07:26:29;;;;;;;;;;;;;;;;;;5018421;28;20707;-66
2021/11/28 07:29:02;;;;;;;;;;;;;;;;;;5003808;28;19925;-66
2021/11/28 07:31:31;;;;;;;;;;;;;;;;;;5013318;28;19975;-68
2021/11/28 07:34:02;;;;;;;;;;;;;;;;;;5003194;28;20402;-67
2021/11/28 07:36:32;;;;;;;;;;;;;;;;;;5013777;28;19940;-67
2021/11/28 07:39:03;;;;;;;;;;;;;;;;;;5012462;28;19995;-67
2021/11/28 07:41:34;;;;;;;;;;;;;;;;;;5010825;28;19972;-66
2021/11/28 07:44:06;;;;;;;;;;;;;;;;;;5009795;28;19930;-65
2021/11/28 07:46:38;;;;;;;;;;;;;;;;;;5011046;28;19940;-65
2021/11/28 07:49:08;;;;;;;;;;;;;;;;;;5011468;28;19940;-65
2021/11/28 07:51:39;;;;;;;;;;;;;;;;;;5008630;28;19925;-66
2021/11/28 07:54:10;;;;;;;;;;;;;;;;;;5005103;28;19944;-66
2021/11/28 07:56:42;;;;;;;;;;;;;;;;;;5009768;28;19925;-67
2021/11/28 07:59:15;;;;;;;;;;;;;;;;;;5005636;28;20004;-67
2021/11/28 08:01:56;;;;;;;;;;;;;;;;;;5010420;28;20016;-66
2021/11/28 08:04:27;;;;;;;;;;;;;;;;;;5018143;28;19929;-66
2021/11/28 08:06:54;;;;;;;;;;;;;;;;;;5027024;28;20232;-66
2021/11/28 08:09:22;;;;;;;;;;;;;;;;;;5022864;28;19929;-66
2021/11/28 08:11:53;;;;;;;;;;;;;;;;;;5026695;28;20092;-64
2021/11/28 08:14:24;;;;;;;;;;;;;;;;;;5020172;28;20494;-65
2021/11/28 08:16:55;;;;;;;;;;;;;;;;;;5026487;28;19925;-65
2021/11/28 08:19:25;;;;;;;;;;;;;;;;;;5022498;28;19929;-65
2021/11/28 08:21:53;;;;;;;;;;;;;;;;;;5027012;28;21014;-65
2021/11/28 08:24:27;;;;;;;;;;;;;;;;;;5026458;28;20402;-65
2021/11/28 08:26:58;;;;;;;;;;;;;;;;;;5027771;28;19932;-65
2021/11/28 08:29:28;;;;;;;;;;;;;;;;;;5022533;28;19925;-65
2021/11/28 08:31:59;;;;;;;;;;;;;;;;;;5027931;28;19929;-66
2021/11/28 08:34:31;;;;;;;;;;;;;;;;;;5024479;28;20259;-66
2021/11/28 08:37:00;;;;;;;;;;;;;;;;;;5026433;28;19987;-67
2021/11/28 08:39:28;;;;;;;;;;;;;;;;;;5024290;28;20484;-67
2021/11/28 08:41:57;;;;;;;;;;;;;;;;;;5025612;28;20540;-67
2021/11/28 08:44:25;;;;;;;;;;;;;;;;;;5024888;28;19929;-67
2021/11/28 08:46:54;;;;;;;;;;;;;;;;;;5025107;28;20377;-65
2021/11/28 08:49:26;;;;;;;;;;;;;;;;;;5023942;28;19998;-66
2021/11/28 08:51:57;;;;;;;;;;;;;;;;;;5025171;28;19933;-66
2021/11/28 08:54:29;;;;;;;;;;;;;;;;;;5025385;28;20427;-66
2021/11/28 08:56:59;;;;;;;;;;;;;;;;;;5024743;28;19932;-65
2021/11/28 08:59:31;;;;;;;;;;;;;;;;;;5003020;28;20466;-65
2021/11/28 09:01:58;;;;;;;;;;;;;;;;;;5024804;28;20512;-65
2021/11/28 09:04:30;;;;;;;;;;;;;;;;;;5025850;28;20321;-65
2021/11/28 09:06:59;;;;;;;;;;;;;;;;;;5021735;28;20305;-65
2021/11/28 09:09:30;;;;;;;;;;;;;;;;;;5019832;28;19990;-65
2021/11/28 09:11:59;;;;;;;;;;;;;;;;;;5022524;28;19929;-65
2021/11/28 09:14:26;;;;;;;;;;;;;;;;;;5026792;28;19982;-65
2021/11/28 09:16:54;;;;;;;;;;;;;;;;;;5025131;28;19929;-66
2021/11/28 09:19:36;;;;;;;;;;;;;;;;;;5027377;28;19963;-67
2021/11/28 09:22:10;;;;;;;;;;;;;;;;;;5023607;28;19925;-65
2021/11/28 09:24:40;;;;;;;;;;;;;;;;;;5028559;28;19932;-65
2021/11/28 09:27:21;;;;;;;;;;;;;;;;;;5014657;28;19990;-66
2021/11/28 09:29:51;;;;;;;;;;;;;;;;;;5018787;28;20031;-67
2021/11/28 09:32:22;;;;;;;;;;;;;;;;;;5017867;28;19933;-66
2021/11/28 09:34:52;;;;;;;;;;;;;;;;;;5019437;28;20378;-66
2021/11/28 09:37:22;;;;;;;;;;;;;;;;;;5021620;28;19932;-67
2021/11/28 09:39:51;;;;;;;;;;;;;;;;;;5026481;28;19932;-68
2021/11/28 09:42:20;;;;;;;;;;;;;;;;;;5024369;28;20504;-67
2021/11/28 09:44:50;;;;;;;;;;;;;;;;;;5025421;28;20000;-67
2021/11/28 09:47:21;;;;;;;;;;;;;;;;;;5018737;28;19990;-67
2021/11/28 09:49:52;;;;;;;;;;;;;;;;;;5026134;28;20458;-68
2021/11/28 09:52:24;;;;;;;;;;;;;;;;;;5021014;28;19925;-67
2021/11/28 09:54:55;;;;;;;;;;;;;;;;;;5026150;28;19932;-67
2021/11/28 09:57:27;;;;;;;;;;;;;;;;;;5007290;28;20298;-71
2021/11/28 09:59:59;;;;;;;;;;;;;;;;;;5020653;28;19929;-68
2021/11/28 10:02:30;;;;;;;;;;;;;;;;;;5016092;28;19925;-65
2021/11/28 10:04:59;;;;;;;;;;;;;;;;;;5026255;28;19932;-66
2021/11/28 10:07:40;;;;;;;;;;;;;;;;;;5020080;28;20291;-67
2021/11/28 10:10:11;;;;;;;;;;;;;;;;;;5022816;28;19959;-67
2021/11/28 10:12:40;;;;;;;;;;;;;;;;;;5013058;28;19930;-66
2021/11/28 10:15:12;;;;;;;;;;;;;;;;;;5020372;28;19959;-66
2021/11/28 10:17:42;;;;;;;;;;;;;;;;;;5021816;28;19925;-66
2021/11/28 10:20:12;;;;;;;;;;;;;;;;;;5026480;28;19924;-66
2021/11/28 10:22:40;;;;;;;;;;;;;;;;;;5018801;28;19925;-66
2021/11/28 10:25:16;;;;;;;;;;;;;;;;;;5026655;28;20504;-66
2021/11/28 10:27:52;;;;;;;;;;;;;;;;;;5010232;28;20282;-65
2021/11/28 10:30:23;;;;;;;;;;;;;;;;;;5017183;28;19972;-67
2021/11/28 10:32:53;;;;;;;;;;;;;;;;;;5023476;28;19933;-67
2021/11/28 10:35:22;;;;;;;;;;;;;;;;;;5020288;28;19929;-68
2021/11/28 10:37:56;;;;;;;;;;;;;;;;;;5024827;28;19928;-68
2021/11/28 10:40:25;;;;;;;;;;;;;;;;;;5023440;28;19929;-68
2021/11/28 10:42:54;;;;;;;;;;;;;;;;;;5023381;28;19929;-69
2021/11/28 10:45:25;;;;;;;;;;;;;;;;;;5019968;28;19936;-69
2021/11/28 10:47:57;;;;;;;;;;;;;;;;;;5019510;28;19925;-69
2021/11/28 10:50:28;;;;;;;;;;;;;;;;;;5021004;28;20358;-70
2021/11/28 10:52:55;;;;;;;;;;;;;;;;;;5025189;28;19940;-70
2021/11/28 10:55:28;;;;;;;;;;;;;;;;;;5023286;28;19936;-69
2021/11/28 10:58:00;;;;;;;;;;;;;;;;;;5018520;28;19936;-69
2021/11/28 11:00:32;;;;;;;;;;;;;;;;;;5023732;28;19936;-69
2021/11/28 11:03:01;;;;;;;;;;;;;;;;;;5020604;28;20066;-69
2021/11/28 11:05:30;;;;;;;;;;;;;;;;;;5021690;28;19925;-68
2021/11/28 11:07:59;;;;;;;;;;;;;;;;;;5022063;28;19925;-69
2021/11/28 11:10:41;;;;;;;;;;;;;;;;;;5031746;28;20032;-70
2021/11/28 11:13:10;;;;;;;;;;;;;;;;;;5022946;28;19933;-70
2021/11/28 11:15:41;;;;;;;;;;;;;;;;;;5024354;28;20232;-69
2021/11/28 11:18:12;;;;;;;;;;;;;;;;;;5023713;28;20299;-69
2021/11/28 11:20:43;;;;;;;;;;;;;;;;;;5024199;28;19956;-69
2021/11/28 11:23:14;;;;;;;;;;;;;;;;;;5022649;28;19925;-70
2021/11/28 11:25:46;;;;;;;;;;;;;;;;;;5029112;28;19944;-70
2021/11/28 11:28:17;;;;;;;;;;;;;;;;;;5023873;28;19933;-70
2021/11/28 11:30:47;;;;;;;;;;;;;;;;;;5015880;28;19960;-70
2021/11/28 11:33:17;;;;;;;;;;;;;;;;;;5020649;28;19933;-70
2021/11/28 11:35:48;;;;;;;;;;;;;;;;;;5028542;28;19952;-70
2021/11/28 11:38:22;;;;;;;;;;;;;;;;;;5025465;28;19933;-67
2021/11/28 11:40:52;;;;;;;;;;;;;;;;;;5027661;28;20841;-67
2021/11/28 11:43:24;;;;;;;;;;;;;;;;;;5005349;28;19987;-66
2021/11/28 11:45:54;;;;;;;;;;;;;;;;;;5013166;28;20023;-67
2021/11/28 11:48:27;;;;;;;;;;;;;;;;;;5021951;28;19933;-68
2021/11/28 11:50:59;;;;;;;;;;;;;;;;;;5023750;28;19940;-66
2021/11/28 11:53:30;;;;;;;;;;;;;;;;;;5019619;28;20283;-67
2021/11/28 11:55:59;;;;;;;;;;;;;;;;;;5011132;28;19925;-65
2021/11/28 11:58:30;;;;;;;;;;;;;;;;;;5022361;28;20301;-66
2021/11/28 12:00:59;;;;;;;;;;;;;;;;;;5025479;28;20250;-66
2021/11/28 12:03:29;;;;;;;;;;;;;;;;;;5020842;28;19925;-67
2021/11/28 12:05:59;;;;;;;;;;;;;;;;;;5026306;28;19933;-68
2021/11/28 12:08:28;;;;;;;;;;;;;;;;;;5021602;28;20359;-68
2021/11/28 12:10:56;;;;;;;;;;;;;;;;;;5024247;28;19940;-69
2021/11/28 12:13:25;;;;;;;;;;;;;;;;;;5020660;28;19929;-69
2021/11/28 12:15:54;;;;;;;;;;;;;;;;;;5030515;28;19925;-68
2021/11/28 12:18:25;;;;;;;;;;;;;;;;;;5024585;28;19937;-66
2021/11/28 12:20:55;;;;;;;;;;;;;;;;;;5025851;28;19936;-68
2021/11/28 12:23:24;;;;;;;;;;;;;;;;;;5021069;28;19937;-67
2021/11/28 12:25:54;;;;;;;;;;;;;;;;;;5010950;28;19925;-68
2021/11/28 12:28:30;;;;;;;;;;;;;;;;;;5027210;28;19929;-67
2021/11/28 12:31:17;;;;;;;;;;;;;;;;;;5023196;28;19925;-70
2021/11/28 12:33:53;;;;;;;;;;;;;;;;;;5021959;28;19933;-68
2021/11/28 12:36:24;;;;;;;;;;;;;;;;;;5029505;28;19925;-67
2021/11/28 12:38:59;;;;;;;;;;;;;;;;;;5022745;28;19932;-67
2021/11/28 12:41:30;;;;;;;;;;;;;;;;;;5024112;28;19929;-68
2021/11/28 12:43:58;;;;;;;;;;;;;;;;;;5027856;28;19929;-70
2021/11/28 12:46:31;;;;;;;;;;;;;;;;;;5022753;28;19957;-69
2021/11/28 12:49:05;;;;;;;;;;;;;;;;;;5010373;28;20020;-68
2021/11/28 12:51:39;;;;;;;;;;;;;;;;;;5024102;28;19933;-71
2021/11/28 12:54:09;;;;;;;;;;;;;;;;;;5025033;28;20325;-68
2021/11/28 12:56:37;;;;;;;;;;;;;;;;;;5026770;28;19936;-70
2021/11/28 12:59:07;;;;;;;;;;;;;;;;;;5023681;28;19925;-68
2021/11/28 13:01:40;;;;;;;;;;;;;;;;;;5023374;28;19936;-68
2021/11/28 13:04:13;;;;;;;;;;;;;;;;;;5024447;28;20456;-69
2021/11/28 13:06:40;;;;;;;;;;;;;;;;;;5027507;28;19925;-68
2021/11/28 13:09:12;;;;;;;;;;;;;;;;;;5025675;28;19931;-68
2021/11/28 13:11:41;;;;;;;;;;;;;;;;;;5021005;28;19925;-69
2021/11/28 13:14:10;;;;;;;;;;;;;;;;;;5025032;28;19925;-70
2021/11/28 13:16:43;;;;;;;;;;;;;;;;;;5025085;28;19929;-70
2021/11/28 13:19:11;;;;;;;;;;;;;;;;;;5027394;28;19924;-68
2021/11/28 13:21:42;;;;;;;;;;;;;;;;;;5022633;28;19929;-68
2021/11/28 13:24:16;;;;;;;;;;;;;;;;;;5024302;28;20540;-67
2021/11/28 13:26:46;;;;;;;;;;;;;;;;;;5027054;28;20448;-69
2021/11/28 13:29:18;;;;;;;;;;;;;;;;;;5024022;28;19940;-69
2021/11/28 13:31:46;;;;;;;;;;;;;;;;;;5028045;28;19943;-69
2021/11/28 13:34:16;;;;;;;;;;;;;;;;;;5026803;28;19929;-69
2021/11/28 13:36:48;;;;;;;;;;;;;;;;;;5025059;28;19936;-69
2021/11/28 13:39:20;;;;;;;;;;;;;;;;;;5020780;28;19929;-69
2021/11/28 13:41:52;;;;;;;;;;;;;;;;;;5028884;28;19940;-71
2021/11/28 13:44:21;;;;;;;;;;;;;;;;;;5031629;28;20596;-71
2021/11/28 13:46:53;;;;;;;;;;;;;;;;;;5020841;28;19928;-67
2021/11/28 13:49:21;;;;;;;;;;;;;;;;;;5025430;28;19933;-68
2021/11/28 13:51:52;;;;;;;;;;;;;;;;;;5023122;28;19925;-69
2021/11/28 13:54:21;;;;;;;;;;;;;;;;;;5024671;28;19929;-69
2021/11/28 13:56:48;;;;;;;;;;;;;;;;;;5010970;28;19926;-70
2021/11/28 13:59:21;;;;;;;;;;;;;;;;;;5021970;28;19925;-69
2021/11/28 14:01:51;;;;;;;;;;;;;;;;;;5022361;28;20004;-68
2021/11/28 14:04:19;;;;;;;;;;;;;;;;;;5024942;28;19936;-69
2021/11/28 14:07:00;;;;;;;;;;;;;;;;;;5023625;28;19929;-68
2021/11/28 14:09:32;;;;;;;;;;;;;;;;;;5020790;28;19924;-68
2021/11/28 14:12:00;;;;;;;;;;;;;;;;;;5025125;28;19968;-68
2021/11/28 14:14:27;;;;;;;;;;;;;;;;;;5035370;28;19929;-68
2021/11/28 14:16:58;;;;;;;;;;;;;;;;;;5023199;28;19929;-69
2021/11/28 14:19:29;;;;;;;;;;;;;;;;;;5017185;28;20282;-69
2021/11/28 14:22:02;;;;;;;;;;;;;;;;;;5018936;28;20020;-70
2021/11/28 14:24:41;;;;;;;;;;;;;;;;;;5025098;28;19940;-70
2021/11/28 14:27:12;;;;;;;;;;;;;;;;;;5022581;28;19944;-66
2021/11/28 14:29:43;;;;;;;;;;;;;;;;;;5023498;28;19933;-68
2021/11/28 14:32:15;;;;;;;;;;;;;;;;;;5024165;28;19968;-68
2021/11/28 14:34:43;;;;;;;;;;;;;;;;;;5022681;28;20015;-68
2021/11/28 14:37:15;;;;;;;;;;;;;;;;;;5024875;28;19925;-67
2021/11/28 14:39:45;;;;;;;;;;;;;;;;;;5025029;28;19932;-70
2021/11/28 14:42:17;;;;;;;;;;;;;;;;;;5022304;28;19940;-69
2021/11/28 14:44:45;;;;;;;;;;;;;;;;;;5026725;28;19940;-69
2021/11/28 14:47:17;;;;;;;;;;;;;;;;;;5017044;28;20227;-70
2021/11/28 14:49:46;;;;;;;;;;;;;;;;;;5022226;28;19983;-68
2021/11/28 14:52:19;;;;;;;;;;;;;;;;;;5023677;28;19940;-69
2021/11/28 14:54:49;;;;;;;;;;;;;;;;;;5025936;28;19986;-67
2021/11/28 14:57:23;;;;;;;;;;;;;;;;;;4998823;28;20340;-67
2021/11/28 14:59:54;;;;;;;;;;;;;;;;;;5023903;28;19932;-67
2021/11/28 15:02:24;;;;;;;;;;;;;;;;;;5015086;28;19937;-67
2021/11/28 15:04:52;;;;;;;;;;;;;;;;;;5025738;28;19940;-66
2021/11/28 15:07:19;;;;;;;;;;;;;;;;;;5024248;28;19929;-66
2021/11/28 15:09:48;;;;;;;;;;;;;;;;;;5032992;28;19933;-66
2021/11/28 15:12:18;;;;;;;;;;;;;;;;;;5025110;28;20322;-66
2021/11/28 15:14:48;;;;;;;;;;;;;;;;;;5028781;28;19939;-65
2021/11/28 15:17:18;;;;;;;;;;;;;;;;;;5026574;28;19932;-65
2021/11/28 15:19:50;;;;;;;;;;;;;;;;;;5025091;28;19936;-66
2021/11/28 15:22:20;;;;;;;;;;;;;;;;;;5021137;28;19929;-65
2021/11/28 15:24:48;;;;;;;;;;;;;;;;;;5028230;28;19929;-65
2021/11/28 15:27:39;;;;;;;;;;;;;;;;;;5024960;28;19933;-63
2021/11/28 15:30:14;;;;;;;;;;;;;;;;;;5026590;28;20430;-64
2021/11/28 15:33:11;;;;;;;;;;;;;;;;;;5030409;28;19929;-62
2021/11/28 15:35:44;;;;;;;;;;;;;;;;;;5028759;28;19925;-64
2021/11/28 15:38:32;;;;;;;;;;;;;;;;;;5025267;28;20397;-64
2021/11/28 15:41:03;;;;;;;;;;;;;;;;;;5037485;28;19953;-63
2021/11/28 15:43:31;;;;;;;;;;;;;;;;;;5026557;28;19935;-62
2021/11/28 15:46:03;;;;;;;;;;;;;;;;;;5036253;28;20840;-64
2021/11/28 15:48:34;;;;;;;;;;;;;;;;;;5027415;28;19925;-64
2021/11/28 15:51:04;;;;;;;;;;;;;;;;;;5024749;28;19929;-63
2021/11/28 15:53:36;;;;;;;;;;;;;;;;;;5025770;28;20008;-63
2021/11/28 15:56:06;;;;;;;;;;;;;;;;;;5025085;28;20690;-66
2021/11/28 15:58:37;;;;;;;;;;;;;;;;;;5022547;28;19934;-63
2021/11/28 16:01:11;;;;;;;;;;;;;;;;;;5023772;28;20274;-63
2021/11/28 16:03:41;;;;;;;;;;;;;;;;;;5025712;28;19924;-63
2021/11/28 16:06:10;;;;;;;;;;;;;;;;;;5024495;28;19933;-63
2021/11/28 16:08:39;;;;;;;;;;;;;;;;;;5025694;28;19937;-64
2021/11/28 16:11:09;;;;;;;;;;;;;;;;;;5024398;28;20378;-64
2021/11/28 16:13:37;;;;;;;;;;;;;;;;;;5008155;28;19933;-63
2021/11/28 16:16:11;;;;;;;;;;;;;;;;;;5024779;28;19929;-64
2021/11/28 16:18:40;;;;;;;;;;;;;;;;;;5022388;28;20040;-64
2021/11/28 16:21:10;;;;;;;;;;;;;;;;;;5026849;28;19979;-64
2021/11/28 16:23:39;;;;;;;;;;;;;;;;;;5019950;28;19994;-63
2021/11/28 16:26:11;;;;;;;;;;;;;;;;;;5020583;28;20004;-64
2021/11/28 16:28:42;;;;;;;;;;;;;;;;;;5025657;28;19975;-64
2021/11/28 16:31:11;;;;;;;;;;;;;;;;;;5026609;28;19994;-65
2021/11/28 16:33:44;;;;;;;;;;;;;;;;;;5017067;28;19924;-66
2021/11/28 16:36:12;;;;;;;;;;;;;;;;;;5022944;28;20016;-66
2021/11/28 16:38:41;;;;;;;;;;;;;;;;;;5021708;28;20381;-67
2021/11/28 16:41:24;;;;;;;;;;;;;;;;;;5021796;28;19939;-65
2021/11/28 16:44:00;;;;;;;;;;;;;;;;;;5025198;28;20362;-64
2021/11/28 16:46:31;;;;;;;;;;;;;;;;;;5025703;28;20404;-63
2021/11/28 16:49:02;;;;;;;;;;;;;;;;;;5018212;28;19936;-63
2021/11/28 16:51:37;;;;;;;;;;;;;;;;;;5022704;28;19929;-63
2021/11/28 16:54:09;;;;;;;;;;;;;;;;;;5023415;28;19941;-64
2021/11/28 16:56:55;;;;;;;;;;;;;;;;;;5024017;28;20012;-64
2021/11/28 16:59:27;;;;;;;;;;;;;;;;;;5018401;28;19932;-63
2021/11/28 17:01:57;;;;;;;;;;;;;;;;;;5025058;28;19933;-64
2021/11/28 17:04:27;;;;;;;;;;;;;;;;;;5023042;28;19959;-63
2021/11/28 17:07:00;;;;;;;;;;;;;;;;;;4984065;28;20061;-63
2021/11/28 17:09:33;;;;;;;;;;;;;;;;;;4981195;28;20052;-63
2021/11/28 17:12:16;;;;;;;;;;;;;;;;;;4982335;28;19929;-64
2021/11/28 17:14:48;;;;;;;;;;;;;;;;;;4994607;28;19930;-64